West Calder, United Kingdom
Current Conditions -  °F | °C
As of 11:50 AM on Tuesday 21 Oct 2014 (Local Time) from EGPH Reporting Station
Few Clouds Few Clouds  
Wind Chill: 50°   Ceiling: Unl
Heat Index: 50°   Visibility: 6mi
Dew Point: 39°   Wind: 15mph
Humidity: 66%   Direction: 280°W
Pressure: 29.38"   Gusts: NA
Location:  55.85°N, 3.57°W
Report Text: EGPH 211050Z 28013KT 260V320 9999 FEW033 10/04 Q0995
Loading
Personal Weather Stations






























Interactive Weather Map
Tropical Storm Tracking
New forecast layout! Learn more

10-Day Weather Forecast

Advertisements
Track Severe Weather on mobile